Time,TemperatureF,DewpointF,PressureIn,WindDirection,WindDirectionDegrees,WindSpeedMPH,WindSpeedGustMPH,Humidity,HourlyPrecipIn,Conditions,Clouds,dailyrainin,SoftwareType,DateUTC
2013-02-09 00:01:00,39.0,25.0,-100.00,WNW,295,8.0,12.0,56,-99.99,,,-99.99,,2013-02-09 07:01:00,
2013-02-09 00:11:00,38.0,24.0,-100.00,NW,310,4.0,10.0,56,-99.99,,,-99.99,,2013-02-09 07:11:00,
2013-02-09 00:21:00,38.0,24.0,-100.00,WNW,300,6.0,7.0,57,-99.99,,,-99.99,,2013-02-09 07:21:00,
2013-02-09 00:31:00,38.0,25.0,-100.00,West,270,4.0,6.0,58,-99.99,,,-99.99,,2013-02-09 07:31:00,
2013-02-09 00:42:00,37.0,25.0,-100.00,NNW,335,1.0,6.0,59,-99.99,,,-99.99,,2013-02-09 07:42:00,
2013-02-09 00:51:00,37.0,25.0,-100.00,ESE,120,6.0,9.0,63,-99.99,,,-99.99,,2013-02-09 07:51:00,
2013-02-09 01:01:00,37.0,26.0,-100.00,WNW,285,2.0,7.0,63,-99.99,,,-99.99,,2013-02-09 08:01:00,
2013-02-09 01:11:00,38.0,26.0,-100.00,West,275,4.0,6.0,63,-99.99,,,-99.99,,2013-02-09 08:11:00,
2013-02-09 01:21:00,38.0,26.0,-100.00,WNW,295,9.0,11.0,63,-99.99,,,-99.99,,2013-02-09 08:21:00,
2013-02-09 01:31:00,38.0,26.0,-100.00,NW,305,7.0,14.0,63,-99.99,,,-99.99,,2013-02-09 08:31:00,
2013-02-09 01:41:00,37.0,26.0,-100.00,NNW,330,6.0,14.0,63,-99.99,,,-99.99,,2013-02-09 08:41:00,
2013-02-09 01:52:00,37.0,27.0,-100.00,NW,320,7.0,10.0,65,-99.99,,,-99.99,,2013-02-09 08:52:00,
2013-02-09 02:02:00,37.0,27.0,-100.00,North,0,4.0,9.0,66,-99.99,,,-99.99,,2013-02-09 09:02:00,
2013-02-09 02:11:00,37.0,27.0,-100.00,East,100,4.0,6.0,67,-99.99,,,-99.99,,2013-02-09 09:11:00,
2013-02-09 02:21:00,37.0,27.0,-100.00,ENE,65,3.0,5.0,67,-99.99,,,-99.99,,2013-02-09 09:21:00,
2013-02-09 02:31:00,36.0,27.0,-100.00,East,95,6.0,6.0,68,-99.99,,,-99.99,,2013-02-09 09:31:00,
2013-02-09 02:41:00,36.0,27.0,-100.00,SSE,150,6.0,7.0,69,-99.99,,,-99.99,,2013-02-09 09:41:00,
2013-02-09 02:51:00,36.0,27.0,-100.00,South,170,6.0,7.0,69,-99.99,,,-99.99,,2013-02-09 09:51:00,
2013-02-09 03:01:00,36.0,27.0,-100.00,SSE,150,6.0,11.0,69,-99.99,,,-99.99,,2013-02-09 10:01:00,
2013-02-09 03:11:00,36.0,27.0,-100.00,SSW,195,8.0,12.0,68,-99.99,,,-99.99,,2013-02-09 10:11:00,
2013-02-09 03:21:00,36.0,26.0,-100.00,South,175,8.0,12.0,68,-99.99,,,-99.99,,2013-02-09 10:21:00,
2013-02-09 03:31:00,35.0,26.0,-100.00,South,180,9.0,13.0,68,-99.99,,,-99.99,,2013-02-09 10:31:00,
2013-02-09 03:41:00,35.0,26.0,-100.00,SSW,195,8.0,12.0,69,-99.99,,,-99.99,,2013-02-09 10:41:00,
2013-02-09 03:51:00,35.0,26.0,-100.00,SSW,195,5.0,10.0,69,-99.99,,,-99.99,,2013-02-09 10:51:00,
2013-02-09 04:01:00,35.0,26.0,-100.00,SSE,165,4.0,9.0,70,-99.99,,,-99.99,,2013-02-09 11:01:00,
2013-02-09 04:11:00,34.0,26.0,-100.00,East,90,2.0,5.0,70,-99.99,,,-99.99,,2013-02-09 11:11:00,
2013-02-09 04:21:00,34.0,26.0,-100.00,ENE,75,7.0,9.0,72,-99.99,,,-99.99,,2013-02-09 11:21:00,
2013-02-09 04:31:00,34.0,26.0,-100.00,ENE,60,1.0,6.0,72,-99.99,,,-99.99,,2013-02-09 11:31:00,
2013-02-09 04:41:00,34.0,26.0,-100.00,SW,230,6.0,7.0,72,-99.99,,,-99.99,,2013-02-09 11:41:00,
2013-02-09 04:52:00,34.0,27.0,-100.00,West,265,6.0,9.0,73,-99.99,,,-99.99,,2013-02-09 11:52:00,
2013-02-09 05:02:00,34.0,28.0,-100.00,West,280,7.0,9.0,76,-99.99,,,-99.99,,2013-02-09 12:02:00,
2013-02-09 05:11:00,34.0,28.0,-100.00,NW,320,7.0,10.0,79,-99.99,,,-99.99,,2013-02-09 12:11:00,
2013-02-09 05:21:00,33.0,29.0,-100.00,NW,325,9.0,12.0,82,-99.99,,,-99.99,,2013-02-09 12:21:00,
2013-02-09 05:32:00,33.0,29.0,-100.00,NW,315,6.0,12.0,84,-99.99,,,-99.99,,2013-02-09 12:32:00,
2013-02-09 05:42:00,32.0,28.0,-100.00,NNW,340,7.0,13.0,86,-99.99,,,-99.99,,2013-02-09 12:42:00,
2013-02-09 05:52:00,32.0,28.0,-100.00,NNW,330,6.0,10.0,87,-99.99,,,-99.99,,2013-02-09 12:52:00,
2013-02-09 06:01:00,32.0,29.0,-100.00,NW,310,2.0,7.0,87,-99.99,,,-99.99,,2013-02-09 13:01:00,
2013-02-09 06:11:00,31.0,29.0,-100.00,NW,315,1.0,6.0,88,-99.99,,,-99.99,,2013-02-09 13:11:00,
2013-02-09 06:21:00,31.0,29.0,-100.00,SW,235,1.0,2.0,89,-99.99,,,-99.99,,2013-02-09 13:21:00,
2013-02-09 06:31:00,31.0,29.0,-100.00,SE,130,3.0,4.0,89,-99.99,,,-99.99,,2013-02-09 13:31:00,
2013-02-09 06:42:00,31.0,29.0,-100.00,ESE,120,4.0,6.0,90,-99.99,,,-99.99,,2013-02-09 13:42:00,
2013-02-09 06:51:00,31.0,29.0,-100.00,East,100,4.0,7.0,91,-99.99,,,-99.99,,2013-02-09 13:51:00,
2013-02-09 07:01:00,31.0,29.0,-100.00,East,100,7.0,9.0,92,-99.99,,,-99.99,,2013-02-09 14:01:00,
2013-02-09 07:11:00,30.0,29.0,-100.00,East,95,6.0,9.0,93,-99.99,,,-99.99,,2013-02-09 14:11:00,
2013-02-09 07:21:00,30.0,29.0,-100.00,SE,125,7.0,9.0,93,-99.99,,,-99.99,,2013-02-09 14:21:00,
2013-02-09 07:31:00,29.0,28.0,-100.00,East,100,5.0,8.0,94,-99.99,,,-99.99,,2013-02-09 14:31:00,
2013-02-09 07:41:00,29.0,28.0,-100.00,East,90,4.0,9.0,94,-99.99,,,-99.99,,2013-02-09 14:41:00,
2013-02-09 07:52:00,29.0,28.0,-100.00,East,80,5.0,7.0,94,-99.99,,,-99.99,,2013-02-09 14:52:00,
2013-02-09 08:01:00,29.0,28.0,-100.00,ENE,60,2.0,7.0,94,-99.99,,,-99.99,,2013-02-09 15:01:00,
2013-02-09 08:11:00,29.0,28.0,-100.00,WNW,295,0.0,1.0,94,-99.99,,,-99.99,,2013-02-09 15:11:00,
2013-02-09 08:21:00,30.0,28.0,-100.00,NNW,335,0.0,4.0,94,-99.99,,,-99.99,,2013-02-09 15:21:00,
2013-02-09 08:31:00,30.0,28.0,-100.00,WSW,250,1.0,4.0,94,-99.99,,,-99.99,,2013-02-09 15:31:00,
2013-02-09 08:41:00,29.0,28.0,-100.00,NNW,340,4.0,7.0,94,-99.99,,,-99.99,,2013-02-09 15:41:00,
2013-02-09 08:51:00,30.0,28.0,-100.00,NNW,330,6.0,7.0,94,-99.99,,,-99.99,,2013-02-09 15:51:00,
2013-02-09 09:01:00,31.0,29.0,-100.00,WNW,290,4.0,7.0,94,-99.99,,,-99.99,,2013-02-09 16:01:00,
2013-02-09 09:11:00,31.0,29.0,-100.00,SW,235,6.0,7.0,94,-99.99,,,-99.99,,2013-02-09 16:11:00,
2013-02-09 09:21:00,31.0,29.0,-100.00,SSW,200,0.0,7.0,94,-99.99,,,-99.99,,2013-02-09 16:21:00,
2013-02-09 09:31:00,31.0,30.0,-100.00,SW,235,0.0,1.0,94,-99.99,,,-99.99,,2013-02-09 16:31:00,
2013-02-09 09:41:00,31.0,30.0,-100.00,SW,225,0.0,2.0,93,-99.99,,,-99.99,,2013-02-09 16:41:00,
2013-02-09 09:51:00,31.0,29.0,-100.00,WSW,245,4.0,6.0,93,-99.99,,,-99.99,,2013-02-09 16:51:00,
2013-02-09 10:01:00,31.0,29.0,-100.00,SW,235,4.0,6.0,92,-99.99,,,-99.99,,2013-02-09 17:01:00,
2013-02-09 10:11:00,32.0,29.0,-100.00,SW,225,3.0,5.0,91,-99.99,,,-99.99,,2013-02-09 17:11:00,
2013-02-09 10:21:00,32.0,30.0,-100.00,SW,235,2.0,4.0,91,-99.99,,,-99.99,,2013-02-09 17:21:00,
2013-02-09 10:31:00,33.0,30.0,-100.00,ESE,115,0.0,2.0,90,-99.99,,,-99.99,,2013-02-09 17:31:00,
2013-02-09 10:41:00,32.0,30.0,-100.00,East,85,2.0,3.0,90,-99.99,,,-99.99,,2013-02-09 17:41:00,
2013-02-09 10:52:00,33.0,30.0,-100.00,East,95,0.0,2.0,89,-99.99,,,-99.99,,2013-02-09 17:52:00,
2013-02-09 11:01:00,34.0,31.0,-100.00,WNW,285,0.0,2.0,88,-99.99,,,-99.99,,2013-02-09 18:01:00,
2013-02-09 11:11:00,34.0,31.0,-100.00,East,80,2.0,4.0,87,-99.99,,,-99.99,,2013-02-09 18:11:00,
2013-02-09 11:23:00,34.0,30.0,-100.00,ESE,115,2.0,4.0,84,-99.99,,,-99.99,,2013-02-09 18:23:00,
2013-02-09 11:31:00,34.0,29.0,-100.00,East,100,2.0,4.0,82,-99.99,,,-99.99,,2013-02-09 18:31:00,
2013-02-09 11:41:00,34.0,28.0,-100.00,West,280,12.0,16.0,80,-99.99,,,-99.99,,2013-02-09 18:41:00,
2013-02-09 11:51:00,33.0,28.0,-100.00,WNW,300,9.0,17.0,78,-99.99,,,-99.99,,2013-02-09 18:51:00,
2013-02-09 12:01:00,34.0,27.0,-100.00,WNW,285,11.0,17.0,76,-99.99,,,-99.99,,2013-02-09 19:01:00,
2013-02-09 12:11:00,34.0,27.0,-100.00,WNW,300,9.0,14.0,74,-99.99,,,-99.99,,2013-02-09 19:11:00,
2013-02-09 12:22:00,35.0,28.0,-100.00,WNW,295,9.0,15.0,74,-99.99,,,-99.99,,2013-02-09 19:22:00,
2013-02-09 12:31:00,35.0,27.0,-100.00,NW,310,10.0,14.0,72,-99.99,,,-99.99,,2013-02-09 19:31:00,
2013-02-09 12:41:00,34.0,26.0,-100.00,NW,305,7.0,13.0,71,-99.99,,,-99.99,,2013-02-09 19:41:00,
2013-02-09 12:52:00,34.0,26.0,-100.00,West,275,14.0,16.0,70,-99.99,,,-99.99,,2013-02-09 19:52:00,
2013-02-09 13:01:00,34.0,25.0,-100.00,West,280,11.0,17.0,70,-99.99,,,-99.99,,2013-02-09 20:01:00,
2013-02-09 13:11:00,34.0,26.0,-100.00,West,275,7.0,11.0,70,-99.99,,,-99.99,,2013-02-09 20:11:00,
2013-02-09 13:21:00,34.0,25.0,-100.00,West,270,7.0,13.0,68,-99.99,,,-99.99,,2013-02-09 20:21:00,
2013-02-09 13:31:00,34.0,25.0,-100.00,WNW,290,9.0,13.0,69,-99.99,,,-99.99,,2013-02-09 20:31:00,
2013-02-09 13:41:00,33.0,25.0,-100.00,WNW,285,7.0,11.0,71,-99.99,,,-99.99,,2013-02-09 20:41:00,
2013-02-09 13:52:00,33.0,25.0,-100.00,SSW,200,1.0,8.0,73,-99.99,,,-99.99,,2013-02-09 20:52:00,
2013-02-09 14:01:00,33.0,26.0,-100.00,SW,220,0.0,2.0,74,-99.99,,,-99.99,,2013-02-09 21:01:00,
2013-02-09 14:11:00,35.0,28.0,-100.00,South,180,3.0,4.0,74,-99.99,,,-99.99,,2013-02-09 21:11:00,
2013-02-09 14:21:00,37.0,29.0,-100.00,South,175,3.0,4.0,74,-99.99,,,-99.99,,2013-02-09 21:21:00,
2013-02-09 14:31:00,36.0,28.0,-100.00,South,190,1.0,6.0,71,-99.99,,,-99.99,,2013-02-09 21:31:00,
2013-02-09 14:41:00,36.0,27.0,-100.00,SSE,150,2.0,4.0,68,-99.99,,,-99.99,,2013-02-09 21:41:00,
2013-02-09 14:52:00,35.0,25.0,-100.00,East,100,4.0,6.0,66,-99.99,,,-99.99,,2013-02-09 21:52:00,
2013-02-09 15:01:00,36.0,25.0,-100.00,SSE,155,4.0,5.0,65,-99.99,,,-99.99,,2013-02-09 22:01:00,
2013-02-09 15:11:00,36.0,25.0,-100.00,SSE,155,4.0,6.0,63,-99.99,,,-99.99,,2013-02-09 22:11:00,
2013-02-09 15:21:00,36.0,25.0,-100.00,South,180,4.0,6.0,63,-99.99,,,-99.99,,2013-02-09 22:21:00,
2013-02-09 15:31:00,36.0,25.0,-100.00,South,170,3.0,4.0,63,-99.99,,,-99.99,,2013-02-09 22:31:00,
2013-02-09 15:41:00,35.0,24.0,-100.00,South,175,3.0,4.0,63,-99.99,,,-99.99,,2013-02-09 22:41:00,
2013-02-09 15:51:00,35.0,24.0,-100.00,SW,230,6.0,7.0,62,-99.99,,,-99.99,,2013-02-09 22:51:00,
2013-02-09 16:01:00,35.0,24.0,-100.00,South,190,6.0,8.0,62,-99.99,,,-99.99,,2013-02-09 23:01:00,
2013-02-09 16:11:00,35.0,24.0,-100.00,South,190,5.0,6.0,63,-99.99,,,-99.99,,2013-02-09 23:11:00,
2013-02-09 16:21:00,35.0,24.0,-100.00,SSW,210,6.0,8.0,64,-99.99,,,-99.99,,2013-02-09 23:21:00,
2013-02-09 16:31:00,34.0,24.0,-100.00,SSW,205,4.0,7.0,64,-99.99,,,-99.99,,2013-02-09 23:31:00,
2013-02-09 16:41:00,35.0,24.0,-100.00,South,185,2.0,6.0,64,-99.99,,,-99.99,,2013-02-09 23:41:00,
2013-02-09 16:52:00,35.0,24.0,-100.00,East,80,4.0,5.0,64,-99.99,,,-99.99,,2013-02-09 23:52:00,
2013-02-09 17:02:00,34.0,23.0,-100.00,SSE,160,2.0,4.0,64,-99.99,,,-99.99,,2013-02-10 00:02:00,
2013-02-09 17:11:00,34.0,23.0,-100.00,SSE,155,2.0,3.0,65,-99.99,,,-99.99,,2013-02-10 00:11:00,
2013-02-09 17:21:00,33.0,23.0,-100.00,SSE,155,0.0,2.0,65,-99.99,,,-99.99,,2013-02-10 00:21:00,
2013-02-09 17:32:00,33.0,23.0,-100.00,WNW,295,1.0,3.0,65,-99.99,,,-99.99,,2013-02-10 00:32:00,
2013-02-09 17:41:00,33.0,23.0,-100.00,NNW,330,2.0,3.0,66,-99.99,,,-99.99,,2013-02-10 00:41:00,
2013-02-09 17:52:00,33.0,23.0,-100.00,NW,320,4.0,7.0,66,-99.99,,,-99.99,,2013-02-10 00:52:00,
2013-02-09 18:01:00,33.0,22.0,-100.00,NW,310,5.0,9.0,65,-99.99,,,-99.99,,2013-02-10 01:01:00,
2013-02-09 18:11:00,32.0,19.0,-100.00,NW,305,7.0,9.0,57,-99.99,,,-99.99,,2013-02-10 01:11:00,
2013-02-09 18:21:00,32.0,16.0,-100.00,WNW,290,7.0,9.0,51,-99.99,,,-99.99,,2013-02-10 01:21:00,
2013-02-09 18:31:00,32.0,16.0,-100.00,NW,305,5.0,7.0,51,-99.99,,,-99.99,,2013-02-10 01:31:00,
2013-02-09 18:41:00,32.0,16.0,-100.00,NW,315,5.0,7.0,50,-99.99,,,-99.99,,2013-02-10 01:41:00,
2013-02-09 18:51:00,31.0,15.0,-100.00,NW,320,6.0,8.0,50,-99.99,,,-99.99,,2013-02-10 01:51:00,
2013-02-09 19:01:00,31.0,15.0,-100.00,NNW,330,7.0,9.0,50,-99.99,,,-99.99,,2013-02-10 02:01:00,
2013-02-09 19:11:00,30.0,14.0,-100.00,NNW,335,7.0,10.0,51,-99.99,,,-99.99,,2013-02-10 02:11:00,
2013-02-09 19:21:00,30.0,14.0,-100.00,NNW,335,7.0,11.0,51,-99.99,,,-99.99,,2013-02-10 02:21:00,
2013-02-09 19:31:00,30.0,14.0,-100.00,NNW,340,9.0,12.0,50,-99.99,,,-99.99,,2013-02-10 02:31:00,
2013-02-09 19:41:00,30.0,13.0,-100.00,NNW,335,9.0,12.0,49,-99.99,,,-99.99,,2013-02-10 02:41:00,
2013-02-09 19:52:00,30.0,13.0,-100.00,NW,310,6.0,10.0,49,-99.99,,,-99.99,,2013-02-10 02:52:00,
2013-02-09 20:01:00,30.0,13.0,-100.00,NW,315,7.0,9.0,50,-99.99,,,-99.99,,2013-02-10 03:01:00,
2013-02-09 20:11:00,30.0,13.0,-100.00,NNW,330,9.0,13.0,50,-99.99,,,-99.99,,2013-02-10 03:11:00,
2013-02-09 20:21:00,30.0,13.0,-100.00,NW,320,9.0,13.0,50,-99.99,,,-99.99,,2013-02-10 03:21:00,
2013-02-09 20:31:00,30.0,13.0,-100.00,NW,315,6.0,11.0,50,-99.99,,,-99.99,,2013-02-10 03:31:00,
2013-02-09 20:41:00,29.0,13.0,-100.00,NW,315,9.0,12.0,51,-99.99,,,-99.99,,2013-02-10 03:41:00,
2013-02-09 20:51:00,29.0,14.0,-100.00,NW,320,11.0,16.0,52,-99.99,,,-99.99,,2013-02-10 03:51:00,
2013-02-09 21:01:00,28.0,13.0,-100.00,NW,325,12.0,15.0,53,-99.99,,,-99.99,,2013-02-10 04:01:00,
2013-02-09 21:11:00,28.0,13.0,-100.00,NNW,330,11.0,15.0,53,-99.99,,,-99.99,,2013-02-10 04:11:00,
2013-02-09 21:21:00,28.0,13.0,-100.00,NW,320,9.0,15.0,54,-99.99,,,-99.99,,2013-02-10 04:21:00,
2013-02-09 21:32:00,28.0,14.0,-100.00,NW,305,4.0,11.0,55,-99.99,,,-99.99,,2013-02-10 04:32:00,
2013-02-09 21:41:00,27.0,13.0,-100.00,WSW,240,7.0,9.0,56,-99.99,,,-99.99,,2013-02-10 04:41:00,
2013-02-09 21:51:00,28.0,15.0,-100.00,WSW,255,6.0,14.0,58,-99.99,,,-99.99,,2013-02-10 04:51:00,
2013-02-09 22:01:00,27.0,14.0,-100.00,WSW,255,6.0,12.0,58,-99.99,,,-99.99,,2013-02-10 05:01:00,
2013-02-09 22:11:00,28.0,15.0,-100.00,West,275,9.0,14.0,59,-99.99,,,-99.99,,2013-02-10 05:11:00,
2013-02-09 22:22:00,28.0,15.0,-100.00,NW,310,9.0,13.0,58,-99.99,,,-99.99,,2013-02-10 05:22:00,
2013-02-09 22:31:00,28.0,15.0,-100.00,WNW,290,7.0,11.0,57,-99.99,,,-99.99,,2013-02-10 05:31:00,
2013-02-09 22:41:00,29.0,15.0,-100.00,WNW,300,4.0,9.0,57,-99.99,,,-99.99,,2013-02-10 05:41:00,
2013-02-09 22:52:00,28.0,14.0,-100.00,SSW,205,4.0,6.0,56,-99.99,,,-99.99,,2013-02-10 05:52:00,
2013-02-09 23:01:00,26.0,13.0,-100.00,South,180,4.0,4.0,57,-99.99,,,-99.99,,2013-02-10 06:01:00,
2013-02-09 23:11:00,25.0,13.0,-100.00,NE,50,2.0,2.0,59,-99.99,,,-99.99,,2013-02-10 06:11:00,
2013-02-09 23:21:00,25.0,13.0,-100.00,ENE,60,0.0,2.0,60,-99.99,,,-99.99,,2013-02-10 06:21:00,
2013-02-09 23:32:00,25.0,13.0,-100.00,SSE,155,2.0,3.0,60,-99.99,,,-99.99,,2013-02-10 06:32:00,
2013-02-09 23:42:00,24.0,13.0,-100.00,South,185,4.0,7.0,61,-99.99,,,-99.99,,2013-02-10 06:42:00,
2013-02-09 23:52:00,24.0,13.0,-100.00,ESE,120,4.0,4.0,62,-99.99,,,-99.99,,2013-02-10 06:52:00,